createdAt,value
2022-08-18T00:01:14.805Z,30.65
2022-08-18T00:03:57.048Z,28.20
2022-08-18T00:06:31.096Z,25.67
2022-08-18T00:09:00.303Z,29.10
2022-08-18T00:11:41.274Z,29.05
2022-08-18T00:14:21.660Z,27.30
2022-08-18T00:16:53.326Z,26.30
2022-08-18T00:19:27.835Z,26.23
2022-08-18T00:22:14.631Z,26.83
2022-08-18T00:24:47.578Z,26.67
2022-08-18T00:27:23.290Z,24.60
2022-08-18T00:29:54.005Z,25.75
2022-08-18T00:32:28.629Z,26.55
2022-08-18T00:34:56.617Z,24.70
2022-08-18T00:37:24.824Z,24.17
2022-08-18T00:39:53.880Z,22.27
2022-08-18T00:42:28.878Z,23.42
2022-08-18T00:45:04.825Z,23.70
2022-08-18T00:47:43.026Z,21.92
2022-08-18T00:50:18.688Z,22.60
2022-08-18T00:52:51.949Z,20.55
2022-08-18T00:55:22.185Z,20.65
2022-08-18T00:57:52.406Z,23.00
2022-08-18T01:00:19.904Z,21.92
2022-08-18T01:02:53.543Z,20.02
2022-08-18T01:05:34.147Z,22.45
2022-08-18T01:08:01.483Z,22.95
2022-08-18T01:10:28.977Z,22.02
2022-08-18T01:12:57.960Z,21.70
2022-08-18T01:15:30.469Z,21.45
2022-08-18T01:18:20.623Z,23.40
2022-08-18T01:21:24.277Z,21.63
2022-08-18T01:23:53.786Z,20.95
2022-08-18T01:26:22.844Z,23.10
2022-08-18T01:28:50.753Z,22.80
2022-08-18T01:31:42.022Z,22.23
2022-08-18T01:34:24.845Z,22.08
2022-08-18T01:36:54.250Z,24.90
2022-08-18T01:41:23.248Z,24.77
2022-08-18T01:42:11.565Z,25.23
2022-08-18T01:44:41.798Z,25.55
2022-08-18T01:47:11.678Z,26.63
2022-08-18T01:49:43.298Z,26.95
2022-08-18T01:54:39.266Z,29.48
2022-08-18T01:57:13.546Z,31.30
2022-08-18T01:59:42.684Z,28.17
2022-08-18T02:02:18.160Z,28.95
2022-08-18T02:04:47.612Z,29.77
2022-08-18T02:07:15.302Z,29.10
2022-08-18T02:09:43.825Z,30.67
2022-08-18T02:12:11.514Z,30.08
2022-08-18T02:14:39.198Z,29.40
2022-08-18T02:17:09.467Z,30.23
2022-08-18T02:19:47.418Z,29.95
2022-08-18T02:22:18.354Z,29.52
2022-08-18T02:24:46.223Z,29.70
2022-08-18T02:27:15.031Z,28.67
2022-08-18T02:29:42.966Z,29.35
2022-08-18T02:32:10.397Z,27.55
2022-08-18T02:34:37.796Z,28.38
2022-08-18T02:37:05.377Z,30.55
2022-08-18T02:39:35.880Z,29.15
2022-08-18T02:42:03.556Z,26.50
2022-08-18T02:44:32.096Z,27.15
2022-08-18T02:46:59.842Z,24.63
2022-08-18T02:49:27.114Z,23.40
2022-08-18T02:51:54.769Z,20.92
2022-08-18T02:54:23.668Z,21.92
2022-08-18T02:56:52.882Z,23.23
2022-08-18T02:59:24.433Z,22.58
2022-08-18T03:01:55.694Z,21.27
2022-08-18T03:04:29.495Z,21.48
2022-08-18T03:07:00.593Z,23.15
2022-08-18T03:09:29.584Z,22.83
2022-08-18T03:11:57.168Z,22.08
2022-08-18T03:14:25.555Z,22.20
2022-08-18T03:16:55.243Z,22.25
2022-08-18T03:19:25.337Z,22.80
2022-08-18T03:21:53.061Z,21.33
2022-08-18T03:24:22.811Z,21.65
2022-08-18T03:26:52.951Z,21.30
2022-08-18T03:29:21.718Z,22.38
2022-08-18T03:31:49.949Z,23.17
2022-08-18T03:34:19.998Z,23.48
2022-08-18T03:36:49.333Z,23.17
2022-08-18T03:39:17.606Z,24.40
2022-08-18T03:41:58.556Z,23.58
2022-08-18T03:44:31.396Z,25.77
2022-08-18T03:46:59.457Z,29.05
2022-08-18T03:49:27.441Z,28.70
2022-08-18T03:51:55.355Z,39.25
2022-08-18T03:54:22.893Z,36.15
2022-08-18T03:56:50.154Z,40.45
2022-08-18T03:59:22.686Z,37.42
2022-08-18T04:01:52.185Z,37.67
2022-08-18T04:04:22.780Z,39.08
2022-08-18T04:07:04.786Z,36.72
2022-08-18T04:09:34.526Z,38.90
2022-08-18T04:12:16.579Z,42.97
2022-08-18T04:14:48.645Z,47.10
2022-08-18T04:17:23.659Z,54.60
2022-08-18T04:19:55.636Z,50.50
2022-08-18T04:22:24.976Z,49.72
2022-08-18T04:24:53.129Z,54.05
2022-08-18T04:27:22.131Z,57.92
2022-08-18T04:29:49.962Z,48.97
2022-08-18T04:32:17.583Z,48.63
2022-08-18T04:34:45.289Z,48.80
2022-08-18T04:37:14.022Z,33.65
2022-08-18T04:39:42.663Z,29.88
2022-08-18T04:42:10.425Z,33.47
2022-08-18T04:44:38.061Z,30.52
2022-08-18T04:47:07.696Z,32.42
2022-08-18T04:49:35.480Z,33.95
2022-08-18T04:52:40.320Z,34.40
2022-08-18T04:55:09.905Z,31.60
2022-08-18T04:57:37.207Z,30.65
2022-08-18T05:00:07.087Z,36.30
2022-08-18T05:02:35.141Z,32.97
2022-08-18T05:05:04.304Z,27.58
2022-08-18T05:07:32.245Z,26.55
2022-08-18T05:09:59.913Z,29.42
2022-08-18T05:12:27.294Z,27.50
2022-08-18T05:14:57.430Z,29.27
2022-08-18T05:17:29.033Z,29.80
2022-08-18T05:20:00.825Z,28.98
2022-08-18T05:22:37.533Z,31.50
2022-08-18T05:25:05.449Z,29.42
2022-08-18T05:27:39.191Z,28.42
2022-08-18T05:30:07.969Z,29.45
2022-08-18T05:32:48.687Z,27.10
2022-08-18T05:35:36.624Z,25.35
2022-08-18T05:38:24.592Z,27.90
2022-08-18T05:41:06.642Z,28.85
2022-08-18T05:43:36.911Z,28.40
2022-08-18T05:46:19.196Z,24.85
2022-08-18T05:48:50.465Z,25.13
2022-08-18T05:51:29.478Z,25.55
2022-08-18T05:54:16.532Z,24.67
2022-08-18T05:56:47.144Z,26.05
2022-08-18T05:59:20.465Z,22.65
2022-08-18T06:01:53.630Z,26.63
2022-08-18T06:04:31.197Z,23.90
2022-08-18T06:07:02.635Z,22.05
2022-08-18T06:09:40.687Z,19.88
2022-08-18T06:12:19.314Z,20.85
2022-08-18T06:14:46.960Z,21.20
2022-08-18T06:17:42.329Z,20.27
2022-08-18T06:20:23.157Z,17.33
2022-08-18T06:23:05.858Z,15.07
2022-08-18T06:26:01.711Z,14.77
2022-08-18T06:28:43.678Z,12.90
2022-08-18T06:31:27.458Z,13.80
2022-08-18T06:34:13.016Z,12.52
2022-08-18T06:36:52.511Z,13.55
2022-08-18T06:39:32.135Z,12.40
2022-08-18T06:42:00.144Z,10.63
2022-08-18T06:44:49.051Z,12.43
2022-08-18T06:47:28.717Z,12.00
2022-08-18T06:50:31.024Z,11.35
2022-08-18T06:53:05.032Z,12.35
2022-08-18T06:55:43.838Z,10.60
2022-08-18T06:58:17.470Z,10.00
2022-08-18T07:01:07.917Z,9.55
2022-08-18T07:03:51.416Z,10.02
2022-08-18T07:06:21.543Z,12.60
2022-08-18T07:09:20.660Z,11.60
2022-08-18T07:12:29.058Z,10.02
2022-08-18T07:15:02.711Z,9.90
2022-08-18T07:17:43.668Z,10.15
2022-08-18T07:20:24.936Z,9.77
2022-08-18T07:23:00.216Z,10.77
2022-08-18T07:25:38.670Z,9.70
2022-08-18T07:28:31.642Z,11.48
2022-08-18T07:31:16.892Z,12.82
2022-08-18T07:33:51.526Z,11.75
2022-08-18T07:36:24.490Z,10.48
2022-08-18T07:38:57.161Z,11.70
2022-08-18T07:41:35.783Z,11.65
2022-08-18T07:44:27.842Z,11.43
2022-08-18T07:47:01.270Z,11.02
2022-08-18T07:49:35.570Z,11.00
2022-08-18T07:52:05.714Z,11.52
2022-08-18T07:54:54.810Z,10.63
2022-08-18T07:57:48.816Z,11.07
2022-08-18T08:00:57.666Z,11.00
2022-08-18T08:03:58.700Z,11.82
2022-08-18T08:06:47.705Z,12.02
2022-08-18T08:09:40.928Z,10.30
2022-08-18T08:12:29.347Z,11.35
2022-08-18T08:15:32.020Z,9.45
2022-08-18T08:18:12.875Z,9.95
2022-08-18T08:20:55.076Z,10.15
2022-08-18T08:23:45.519Z,10.95
2022-08-18T08:26:42.287Z,9.43
2022-08-18T08:29:36.449Z,9.68
2022-08-18T08:32:10.921Z,10.57
2022-08-18T08:35:48.889Z,9.68
2022-08-18T08:38:40.010Z,11.52
2022-08-18T08:43:45.596Z,11.45
2022-08-18T08:46:30.024Z,10.60
2022-08-18T08:49:17.096Z,9.13
2022-08-18T08:51:56.761Z,9.43
2022-08-18T08:54:30.837Z,10.73
2022-08-18T08:57:01.360Z,9.68
2022-08-18T08:59:28.894Z,11.30
2022-08-18T09:02:32.266Z,9.70
2022-08-18T09:05:40.173Z,10.45
2022-08-18T09:08:42.993Z,11.65
2022-08-18T09:11:13.387Z,10.07
2022-08-18T09:13:46.716Z,9.32
2022-08-18T09:16:43.789Z,10.60
2022-08-18T09:19:32.840Z,9.00
2022-08-18T09:22:01.693Z,9.57
2022-08-18T09:24:33.126Z,11.02
2022-08-18T09:27:03.209Z,10.57
2022-08-18T09:29:43.913Z,9.63
2022-08-18T09:32:24.230Z,10.05
2022-08-18T09:35:23.542Z,11.15
2022-08-18T09:38:33.595Z,9.82
2022-08-18T09:41:29.378Z,10.32
2022-08-18T09:44:21.436Z,10.07
2022-08-18T09:46:56.113Z,9.70
2022-08-18T09:49:31.054Z,10.45
2022-08-18T09:55:18.085Z,11.43
2022-08-18T09:57:47.993Z,9.68
2022-08-18T10:00:28.083Z,11.45
2022-08-18T10:02:56.388Z,9.18
2022-08-18T10:05:31.213Z,9.50
2022-08-18T10:08:14.863Z,9.65
2022-08-18T10:11:01.173Z,10.75
2022-08-18T10:14:08.098Z,9.82
2022-08-18T10:19:50.273Z,9.00
2022-08-18T10:22:37.519Z,9.55
2022-08-18T10:25:22.032Z,9.40
2022-08-18T10:27:57.238Z,9.43
2022-08-18T10:30:34.426Z,9.63
2022-08-18T10:33:17.937Z,9.77
2022-08-18T10:35:57.881Z,10.25
2022-08-18T10:38:31.036Z,9.35
2022-08-18T10:41:09.814Z,10.27
2022-08-18T10:43:57.768Z,9.88
2022-08-18T10:46:40.402Z,10.50
2022-08-18T10:49:13.462Z,10.10
2022-08-18T10:51:59.984Z,10.38
2022-08-18T10:54:54.027Z,10.90
2022-08-18T10:57:36.120Z,10.35
2022-08-18T11:03:51.263Z,10.50
2022-08-18T11:06:24.913Z,10.38
2022-08-18T11:09:01.566Z,10.35
2022-08-18T11:11:52.878Z,10.85
2022-08-18T11:14:51.123Z,12.02
2022-08-18T11:17:35.855Z,10.98
2022-08-18T11:20:11.055Z,11.75
2022-08-18T11:22:38.310Z,11.85
2022-08-18T11:25:20.668Z,12.13
2022-08-18T11:27:49.241Z,12.60
2022-08-18T11:30:18.872Z,12.85
2022-08-18T11:32:52.263Z,11.90
2022-08-18T11:35:30.206Z,12.02
2022-08-18T11:38:01.969Z,11.98
2022-08-18T11:41:10.397Z,12.20
2022-08-18T11:43:41.596Z,11.70
2022-08-18T11:46:29.485Z,10.85
2022-08-18T11:49:01.046Z,11.90
2022-08-18T11:51:32.509Z,12.43
2022-08-18T11:54:19.062Z,12.80
2022-08-18T11:56:46.468Z,12.85
2022-08-18T11:59:53.140Z,12.40
2022-08-18T12:02:17.963Z,11.13
2022-08-18T12:04:51.476Z,12.45
2022-08-18T12:07:30.974Z,12.55
2022-08-18T12:10:28.809Z,12.93
2022-08-18T12:13:00.480Z,11.38
2022-08-18T12:15:44.989Z,11.35
2022-08-18T12:18:18.937Z,11.82
2022-08-18T12:20:58.821Z,11.43
2022-08-18T12:23:26.908Z,11.25
2022-08-18T12:25:54.170Z,11.98
2022-08-18T12:28:22.343Z,11.32
2022-08-18T12:30:56.362Z,11.57
2022-08-18T12:33:25.554Z,11.05
2022-08-18T12:36:04.185Z,11.02
2022-08-18T12:38:33.318Z,11.13
2022-08-18T12:41:05.490Z,10.70
2022-08-18T12:43:32.728Z,11.00
2022-08-18T12:46:02.524Z,11.88
2022-08-18T12:48:31.839Z,11.73
2022-08-18T12:50:59.975Z,11.02
2022-08-18T12:53:30.587Z,11.95
2022-08-18T12:56:21.716Z,12.15
2022-08-18T12:58:49.907Z,11.18
2022-08-18T13:01:23.326Z,11.40
2022-08-18T13:04:13.240Z,10.63
2022-08-18T13:06:59.889Z,10.77
2022-08-18T13:09:34.939Z,11.27
2022-08-18T13:12:17.340Z,12.45
2022-08-18T13:14:46.015Z,11.20
2022-08-18T13:17:29.995Z,10.77
2022-08-18T13:20:09.202Z,11.95
2022-08-18T13:22:42.893Z,10.02
2022-08-18T13:25:32.164Z,11.13
2022-08-18T13:28:02.025Z,11.80
2022-08-18T13:30:32.428Z,11.25
2022-08-18T13:33:02.486Z,12.25
2022-08-18T13:35:38.536Z,11.57
2022-08-18T13:38:17.409Z,10.95
2022-08-18T13:40:49.104Z,11.40
2022-08-18T13:43:21.088Z,10.68
2022-08-18T13:45:53.404Z,9.55
2022-08-18T13:48:25.668Z,9.82
2022-08-18T13:50:55.728Z,8.90
2022-08-18T13:53:27.180Z,9.50
2022-08-18T13:55:58.536Z,9.45
2022-08-18T13:58:27.708Z,10.57
2022-08-18T14:01:22.654Z,10.13
2022-08-18T14:03:49.969Z,13.55
2022-08-18T14:06:22.516Z,10.07
2022-08-18T14:08:53.104Z,9.05
2022-08-18T14:11:32.792Z,9.70
2022-08-18T14:14:02.078Z,8.52
2022-08-18T14:16:30.791Z,8.98
2022-08-18T14:19:17.648Z,8.45
2022-08-18T14:22:11.117Z,8.30
2022-08-18T14:24:59.408Z,8.05
2022-08-18T14:27:35.178Z,7.60
2022-08-18T14:30:08.724Z,8.25
2022-08-18T14:32:37.008Z,8.45
2022-08-18T14:35:32.060Z,8.27
2022-08-18T14:38:09.813Z,8.40
2022-08-18T14:40:43.166Z,9.25
2022-08-18T14:43:16.169Z,8.25
2022-08-18T14:45:48.837Z,8.40
2022-08-18T14:48:20.360Z,7.75
2022-08-18T14:53:20.295Z,8.02
2022-08-18T14:55:52.169Z,8.02
2022-08-18T14:58:20.811Z,8.15
2022-08-18T15:00:53.352Z,7.20
2022-08-18T15:03:28.210Z,8.32
2022-08-18T15:06:00.557Z,8.13
2022-08-18T15:08:28.820Z,7.95
2022-08-18T15:10:57.421Z,8.00
2022-08-18T15:13:26.339Z,7.53
2022-08-18T15:16:02.175Z,8.43
2022-08-18T15:18:30.009Z,7.95
2022-08-18T15:21:19.704Z,6.95
2022-08-18T15:24:22.653Z,7.75
2022-08-18T15:26:57.486Z,7.47
2022-08-18T15:29:29.009Z,6.97
2022-08-18T15:32:05.831Z,6.47
2022-08-18T15:34:47.023Z,6.97
2022-08-18T15:37:20.388Z,7.00
2022-08-18T15:40:30.462Z,7.20
2022-08-18T15:43:01.599Z,6.88
2022-08-18T15:45:43.182Z,6.90
2022-08-18T15:48:24.993Z,6.57
2022-08-18T15:50:53.228Z,7.03
2022-08-18T15:53:23.124Z,6.88
2022-08-18T15:55:50.636Z,8.05
2022-08-18T15:58:22.485Z,7.15
2022-08-18T16:00:54.592Z,6.90
2022-08-18T16:03:21.904Z,6.75
2022-08-18T16:05:52.779Z,7.00
2022-08-18T16:08:23.653Z,7.13
2022-08-18T16:10:52.018Z,6.90
2022-08-18T16:13:20.086Z,6.82
2022-08-18T16:15:48.548Z,6.93
2022-08-18T16:18:17.871Z,6.65
2022-08-18T16:20:45.313Z,7.15
2022-08-18T16:23:13.319Z,6.68
2022-08-18T16:25:42.211Z,7.05
2022-08-18T16:28:10.604Z,6.50
2022-08-18T16:30:37.996Z,6.45
2022-08-18T16:33:06.956Z,7.15
2022-08-18T16:35:35.203Z,6.32
2022-08-18T16:38:09.632Z,7.10
2022-08-18T16:40:37.686Z,6.57
2022-08-18T16:43:06.823Z,6.45
2022-08-18T16:45:36.763Z,6.13
2022-08-18T16:48:04.410Z,6.10
2022-08-18T16:50:31.922Z,5.75
2022-08-18T16:52:59.133Z,6.25
2022-08-18T16:55:26.819Z,6.45
2022-08-18T16:58:15.620Z,6.97
2022-08-18T17:01:01.974Z,6.65
2022-08-18T17:03:48.168Z,6.45
2022-08-18T17:06:17.709Z,5.93
2022-08-18T17:08:45.602Z,6.05
2022-08-18T17:11:16.524Z,6.50
2022-08-18T17:13:44.789Z,6.30
2022-08-18T17:16:13.490Z,6.07
2022-08-18T17:18:41.486Z,5.68
2022-08-18T17:21:11.805Z,6.32
2022-08-18T17:23:39.882Z,6.50
2022-08-18T17:26:12.857Z,6.90
2022-08-18T17:28:50.513Z,6.45
2022-08-18T17:31:24.719Z,6.55
2022-08-18T17:33:57.392Z,6.32
2022-08-18T17:36:41.125Z,6.32
2022-08-18T17:39:13.237Z,6.68
2022-08-18T17:42:02.353Z,6.63
2022-08-18T17:44:31.659Z,6.95
2022-08-18T17:47:02.466Z,6.80
2022-08-18T17:50:26.979Z,6.45
2022-08-18T17:53:05.507Z,6.50
2022-08-18T17:55:41.409Z,6.40
2022-08-18T17:58:20.498Z,6.60
2022-08-18T18:00:48.077Z,7.25
2022-08-18T18:03:15.633Z,6.70
2022-08-18T18:05:49.779Z,6.78
2022-08-18T18:08:17.717Z,6.55
2022-08-18T18:11:04.383Z,6.88
2022-08-18T18:13:33.709Z,7.25
2022-08-18T18:16:35.449Z,7.18
2022-08-18T18:19:06.447Z,7.45
2022-08-18T18:21:55.414Z,8.20
2022-08-18T18:24:31.770Z,8.00
2022-08-18T18:26:59.143Z,7.03
2022-08-18T18:29:33.271Z,7.60
2022-08-18T18:32:25.315Z,7.50
2022-08-18T18:35:07.321Z,7.00
2022-08-18T18:38:00.595Z,8.40
2022-08-18T18:40:30.744Z,8.15
2022-08-18T18:43:17.855Z,8.13
2022-08-18T18:46:07.377Z,7.65
2022-08-18T18:48:59.516Z,8.30
2022-08-18T18:51:40.916Z,8.00
2022-08-18T18:54:26.289Z,7.85
2022-08-18T18:56:56.782Z,8.13
2022-08-18T18:59:42.633Z,8.70
2022-08-18T19:02:33.978Z,8.70
2022-08-18T19:05:08.500Z,8.10
2022-08-18T19:07:57.382Z,8.23
2022-08-18T19:10:33.851Z,8.57
2022-08-18T19:13:02.914Z,8.27
2022-08-18T19:15:34.324Z,8.40
2022-08-18T19:18:34.919Z,8.48
2022-08-18T19:22:03.535Z,9.00
2022-08-18T19:24:04.876Z,8.00
2022-08-18T19:26:39.387Z,8.20
2022-08-18T19:29:15.463Z,8.02
2022-08-18T19:31:48.715Z,8.70
2022-08-18T19:34:30.174Z,8.43
2022-08-18T19:37:27.571Z,8.05
2022-08-18T19:40:21.413Z,8.37
2022-08-18T19:43:01.413Z,8.98
2022-08-18T19:45:46.615Z,9.98
2022-08-18T19:48:39.275Z,9.40
2022-08-18T19:51:13.488Z,9.40
2022-08-18T19:53:47.325Z,9.73
2022-08-18T19:56:38.979Z,10.00
2022-08-18T19:59:35.459Z,9.10
2022-08-18T20:02:35.389Z,9.20
2022-08-18T20:05:30.168Z,9.68
2022-08-18T20:08:09.783Z,9.13
2022-08-18T20:10:42.859Z,8.75
2022-08-18T20:13:33.885Z,9.35
2022-08-18T20:16:10.731Z,9.32
2022-08-18T20:18:42.831Z,9.43
2022-08-18T20:21:16.070Z,8.90
2022-08-18T20:24:38.453Z,9.30
2022-08-18T20:27:35.921Z,8.48
2022-08-18T20:30:18.432Z,8.65
2022-08-18T20:33:07.457Z,9.90
2022-08-18T20:35:51.935Z,9.23
2022-08-18T20:38:29.192Z,9.20
2022-08-18T20:40:59.676Z,8.32
2022-08-18T20:43:31.982Z,8.70
2022-08-18T20:46:36.208Z,9.00
2022-08-18T20:49:35.550Z,8.18
2022-08-18T20:52:14.174Z,9.15
2022-08-18T20:54:58.566Z,9.70
2022-08-18T20:57:35.208Z,12.55
2022-08-18T21:00:14.273Z,11.25
2022-08-18T21:02:52.111Z,9.50
2022-08-18T21:05:31.657Z,9.93
2022-08-18T21:08:16.342Z,9.65
2022-08-18T21:11:08.266Z,9.02
2022-08-18T21:13:41.390Z,11.95
2022-08-18T21:16:10.912Z,10.02
2022-08-18T21:18:40.367Z,9.60
2022-08-18T21:21:26.853Z,8.80
2022-08-18T21:23:58.155Z,10.25
2022-08-18T21:26:27.265Z,10.07
2022-08-18T21:28:58.765Z,9.70
2022-08-18T21:31:44.161Z,10.40
2022-08-18T21:34:14.443Z,9.60
2022-08-18T21:36:54.538Z,10.02
2022-08-18T21:39:22.619Z,10.88
2022-08-18T21:41:54.534Z,10.30
2022-08-18T21:44:42.823Z,10.27
2022-08-18T21:47:26.576Z,11.50
2022-08-18T21:50:17.985Z,11.02
2022-08-18T21:53:02.391Z,10.13
2022-08-18T21:55:30.367Z,11.52
2022-08-18T21:58:16.922Z,10.68
2022-08-18T22:01:22.582Z,11.18
2022-08-18T22:03:59.319Z,11.05
2022-08-18T22:06:34.443Z,10.45
2022-08-18T22:09:30.101Z,11.02
2022-08-18T22:12:54.818Z,11.20
2022-08-18T22:15:39.427Z,10.40
2022-08-18T22:18:18.722Z,13.25
2022-08-18T22:20:57.461Z,9.77
2022-08-18T22:24:12.349Z,9.77
2022-08-18T22:26:40.408Z,9.05
2022-08-18T22:29:19.767Z,10.25
2022-08-18T22:31:50.127Z,9.82
2022-08-18T22:34:28.165Z,11.07
2022-08-18T22:37:00.863Z,9.70
2022-08-18T22:39:57.001Z,10.10
2022-08-18T22:42:27.577Z,9.73
2022-08-18T22:44:57.989Z,9.98
2022-08-18T22:47:29.353Z,10.88
2022-08-18T22:49:57.442Z,21.20
2022-08-18T22:52:29.895Z,13.23
2022-08-18T22:54:59.628Z,10.38
2022-08-18T22:57:33.848Z,9.07
2022-08-18T23:00:09.147Z,10.93
2022-08-18T23:02:37.577Z,9.60
2022-08-18T23:05:05.775Z,9.98
2022-08-18T23:07:34.237Z,8.82
2022-08-18T23:10:01.813Z,9.27
2022-08-18T23:12:29.224Z,10.40
2022-08-18T23:14:56.416Z,10.50
2022-08-18T23:17:23.615Z,11.10
2022-08-18T23:19:52.222Z,10.77
2022-08-18T23:22:19.722Z,10.45
2022-08-18T23:24:48.525Z,9.52
2022-08-18T23:27:16.946Z,11.23
2022-08-18T23:29:44.137Z,11.27
2022-08-18T23:32:11.346Z,11.00
2022-08-18T23:34:38.817Z,9.65
2022-08-18T23:37:09.718Z,10.55
2022-08-18T23:39:39.504Z,9.93
2022-08-18T23:42:13.195Z,10.95
2022-08-18T23:44:41.083Z,10.88
2022-08-18T23:47:08.338Z,10.95
2022-08-18T23:49:36.865Z,11.25
2022-08-18T23:52:05.801Z,11.25
2022-08-18T23:54:35.128Z,10.75
2022-08-18T23:57:02.793Z,10.55
2022-08-18T23:59:30.171Z,9.93
